sensor_id;sensor_type;location;lat;lon;timestamp;pressure;altitude;pressure_sealevel;temperature;humidity
71573;BME280;59408;51.032;9.410;2023-04-03T00:00:35;100195.34;;;1.10;80.94
71573;BME280;59408;51.032;9.410;2023-04-03T00:03:02;100200.69;;;1.05;80.90
71573;BME280;59408;51.032;9.410;2023-04-03T00:05:29;100202.72;;;0.98;80.74
71573;BME280;59408;51.032;9.410;2023-04-03T00:07:56;100210.41;;;0.90;82.06
71573;BME280;59408;51.032;9.410;2023-04-03T00:10:23;100209.44;;;0.79;81.57
71573;BME280;59408;51.032;9.410;2023-04-03T00:12:49;100208.78;;;0.72;81.55
71573;BME280;59408;51.032;9.410;2023-04-03T00:15:17;100214.88;;;0.67;80.96
71573;BME280;59408;51.032;9.410;2023-04-03T00:17:44;100210.41;;;0.56;81.88
71573;BME280;59408;51.032;9.410;2023-04-03T00:20:11;100208.69;;;0.50;82.12
71573;BME280;59408;51.032;9.410;2023-04-03T00:22:38;100219.59;;;0.43;82.85
71573;BME280;59408;51.032;9.410;2023-04-03T00:25:05;100219.50;;;0.38;82.91
71573;BME280;59408;51.032;9.410;2023-04-03T00:27:32;100218.63;;;0.33;82.62
71573;BME280;59408;51.032;9.410;2023-04-03T00:29:59;100226.91;;;0.31;83.12
71573;BME280;59408;51.032;9.410;2023-04-03T00:32:27;100224.63;;;0.23;83.26
71573;BME280;59408;51.032;9.410;2023-04-03T00:34:53;100226.66;;;0.16;83.61
71573;BME280;59408;51.032;9.410;2023-04-03T00:37:20;100230.28;;;0.10;83.42
71573;BME280;59408;51.032;9.410;2023-04-03T00:39:46;100233.94;;;0.04;84.61
71573;BME280;59408;51.032;9.410;2023-04-03T00:42:13;100230.13;;;-0.00;84.65
71573;BME280;59408;51.032;9.410;2023-04-03T00:47:45;100235.66;;;-0.18;85.71
71573;BME280;59408;51.032;9.410;2023-04-03T00:50:12;100230.66;;;-0.27;86.04
71573;BME280;59408;51.032;9.410;2023-04-03T00:52:39;100227.06;;;-0.32;86.88
71573;BME280;59408;51.032;9.410;2023-04-03T00:55:07;100237.72;;;-0.37;86.76
71573;BME280;59408;51.032;9.410;2023-04-03T00:57:35;100228.84;;;-0.38;86.14
71573;BME280;59408;51.032;9.410;2023-04-03T01:00:07;100234.06;;;-0.31;85.04
71573;BME280;59408;51.032;9.410;2023-04-03T01:02:34;100231.03;;;-0.35;84.71
71573;BME280;59408;51.032;9.410;2023-04-03T01:05:03;100236.97;;;-0.33;85.53
71573;BME280;59408;51.032;9.410;2023-04-03T01:07:31;100221.94;;;-0.34;84.49
71573;BME280;59408;51.032;9.410;2023-04-03T01:10:00;100227.53;;;-0.35;84.42
71573;BME280;59408;51.032;9.410;2023-04-03T01:12:30;100223.13;;;-0.41;84.72
71573;BME280;59408;51.032;9.410;2023-04-03T01:14:58;100217.69;;;-0.46;85.86
71573;BME280;59408;51.032;9.410;2023-04-03T01:17:31;100215.72;;;-0.51;86.04
71573;BME280;59408;51.032;9.410;2023-04-03T01:20:22;100218.84;;;-0.54;85.34
71573;BME280;59408;51.032;9.410;2023-04-03T01:22:56;100214.22;;;-0.58;85.54
71573;BME280;59408;51.032;9.410;2023-04-03T01:25:25;100220.03;;;-0.62;85.02
71573;BME280;59408;51.032;9.410;2023-04-03T01:27:52;100218.09;;;-0.66;85.34
71573;BME280;59408;51.032;9.410;2023-04-03T01:30:21;100215.63;;;-0.68;85.41
71573;BME280;59408;51.032;9.410;2023-04-03T01:32:51;100222.50;;;-0.72;85.50
71573;BME280;59408;51.032;9.410;2023-04-03T01:35:18;100225.66;;;-0.75;85.90
71573;BME280;59408;51.032;9.410;2023-04-03T01:37:44;100226.84;;;-0.82;86.22
71573;BME280;59408;51.032;9.410;2023-04-03T01:40:11;100230.56;;;-0.83;86.39
71573;BME280;59408;51.032;9.410;2023-04-03T01:42:38;100234.06;;;-0.83;85.86
71573;BME280;59408;51.032;9.410;2023-04-03T01:45:05;100237.22;;;-0.86;86.35
71573;BME280;59408;51.032;9.410;2023-04-03T01:47:32;100240.94;;;-0.87;85.93
71573;BME280;59408;51.032;9.410;2023-04-03T01:50:00;100242.09;;;-0.83;86.08
71573;BME280;59408;51.032;9.410;2023-04-03T01:52:26;100236.97;;;-0.84;85.79
71573;BME280;59408;51.032;9.410;2023-04-03T01:54:53;100245.84;;;-0.84;86.05
71573;BME280;59408;51.032;9.410;2023-04-03T01:57:20;100246.88;;;-0.85;86.10
71573;BME280;59408;51.032;9.410;2023-04-03T01:59:46;100256.19;;;-0.87;85.79
71573;BME280;59408;51.032;9.410;2023-04-03T02:02:13;100243.25;;;-0.90;86.21
71573;BME280;59408;51.032;9.410;2023-04-03T02:04:40;100244.78;;;-0.94;86.68
71573;BME280;59408;51.032;9.410;2023-04-03T02:07:08;100239.31;;;-1.00;87.21
71573;BME280;59408;51.032;9.410;2023-04-03T02:09:34;100247.00;;;-1.03;87.28
71573;BME280;59408;51.032;9.410;2023-04-03T02:12:01;100249.91;;;-1.05;87.61
71573;BME280;59408;51.032;9.410;2023-04-03T02:14:28;100244.44;;;-1.10;87.42
71573;BME280;59408;51.032;9.410;2023-04-03T02:16:54;100255.84;;;-1.14;87.75
71573;BME280;59408;51.032;9.410;2023-04-03T02:19:21;100252.13;;;-1.13;87.76
71573;BME280;59408;51.032;9.410;2023-04-03T02:21:48;100249.91;;;-1.16;87.98
71573;BME280;59408;51.032;9.410;2023-04-03T02:24:16;100260.50;;;-1.21;88.57
71573;BME280;59408;51.032;9.410;2023-04-03T02:26:43;100255.25;;;-1.28;89.10
71573;BME280;59408;51.032;9.410;2023-04-03T02:29:09;100258.84;;;-1.34;88.89
71573;BME280;59408;51.032;9.410;2023-04-03T02:31:36;100262.22;;;-1.39;89.12
71573;BME280;59408;51.032;9.410;2023-04-03T02:34:03;100264.75;;;-1.44;89.74
71573;BME280;59408;51.032;9.410;2023-04-03T02:36:29;100259.28;;;-1.49;89.77
71573;BME280;59408;51.032;9.410;2023-04-03T02:38:58;100259.41;;;-1.55;89.92
71573;BME280;59408;51.032;9.410;2023-04-03T02:41:26;100256.59;;;-1.60;90.03
71573;BME280;59408;51.032;9.410;2023-04-03T02:43:53;100257.50;;;-1.66;90.14
71573;BME280;59408;51.032;9.410;2023-04-03T02:46:19;100257.84;;;-1.74;91.30
71573;BME280;59408;51.032;9.410;2023-04-03T02:48:46;100253.97;;;-1.79;91.62
71573;BME280;59408;51.032;9.410;2023-04-03T02:51:13;100254.69;;;-1.83;91.98
71573;BME280;59408;51.032;9.410;2023-04-03T02:53:39;100259.66;;;-1.87;92.04
71573;BME280;59408;51.032;9.410;2023-04-03T02:56:07;100263.59;;;-1.89;92.56
71573;BME280;59408;51.032;9.410;2023-04-03T02:58:35;100267.06;;;-1.89;92.26
71573;BME280;59408;51.032;9.410;2023-04-03T03:01:02;100263.38;;;-1.88;92.35
71573;BME280;59408;51.032;9.410;2023-04-03T03:03:29;100260.91;;;-1.89;92.80
71573;BME280;59408;51.032;9.410;2023-04-03T03:06:03;100264.19;;;-1.87;92.58
71573;BME280;59408;51.032;9.410;2023-04-03T03:08:29;100261.13;;;-1.91;92.74
71573;BME280;59408;51.032;9.410;2023-04-03T03:10:56;100266.25;;;-1.89;93.17
71573;BME280;59408;51.032;9.410;2023-04-03T03:13:23;100263.25;;;-1.93;93.00
71573;BME280;59408;51.032;9.410;2023-04-03T03:15:51;100268.59;;;-1.93;93.31
71573;BME280;59408;51.032;9.410;2023-04-03T03:18:18;100261.59;;;-1.94;93.64
71573;BME280;59408;51.032;9.410;2023-04-03T03:20:44;100265.69;;;-1.91;93.55
71573;BME280;59408;51.032;9.410;2023-04-03T03:23:11;100267.56;;;-1.92;93.80
71573;BME280;59408;51.032;9.410;2023-04-03T03:25:38;100265.09;;;-1.93;94.01
71573;BME280;59408;51.032;9.410;2023-04-03T03:28:05;100266.97;;;-1.94;94.05
71573;BME280;59408;51.032;9.410;2023-04-03T03:30:32;100263.09;;;-1.98;94.29
71573;BME280;59408;51.032;9.410;2023-04-03T03:32:59;100265.63;;;-2.03;94.18
71573;BME280;59408;51.032;9.410;2023-04-03T03:35:26;100258.88;;;-2.05;94.85
71573;BME280;59408;51.032;9.410;2023-04-03T03:37:53;100268.97;;;-2.07;95.46
71573;BME280;59408;51.032;9.410;2023-04-03T03:40:20;100261.78;;;-2.07;95.36
71573;BME280;59408;51.032;9.410;2023-04-03T03:42:46;100265.97;;;-2.11;95.71
71573;BME280;59408;51.032;9.410;2023-04-03T03:45:13;100260.69;;;-2.18;95.70
71573;BME280;59408;51.032;9.410;2023-04-03T03:47:39;100264.25;;;-2.24;96.11
71573;BME280;59408;51.032;9.410;2023-04-03T03:50:08;100264.13;;;-2.29;96.58
71573;BME280;59408;51.032;9.410;2023-04-03T03:52:35;100265.00;;;-2.35;97.09
71573;BME280;59408;51.032;9.410;2023-04-03T03:55:02;100257.47;;;-2.38;97.18
71573;BME280;59408;51.032;9.410;2023-04-03T03:57:28;100259.75;;;-2.41;97.83
71573;BME280;59408;51.032;9.410;2023-04-03T03:59:55;100265.91;;;-2.41;97.94
71573;BME280;59408;51.032;9.410;2023-04-03T04:02:22;100260.34;;;-2.39;98.13
71573;BME280;59408;51.032;9.410;2023-04-03T04:04:49;100266.72;;;-2.40;98.20
71573;BME280;59408;51.032;9.410;2023-04-03T04:07:17;100265.47;;;-2.38;98.29
71573;BME280;59408;51.032;9.410;2023-04-03T04:09:43;100268.97;;;-2.37;98.15
71573;BME280;59408;51.032;9.410;2023-04-03T04:12:10;100282.31;;;-2.37;98.10
71573;BME280;59408;51.032;9.410;2023-04-03T04:14:37;100268.19;;;-2.44;98.51
71573;BME280;59408;51.032;9.410;2023-04-03T04:17:04;100274.38;;;-2.44;98.38
71573;BME280;59408;51.032;9.410;2023-04-03T04:19:30;100272.16;;;-2.47;98.54
71573;BME280;59408;51.032;9.410;2023-04-03T04:21:57;100271.13;;;-2.46;98.49
71573;BME280;59408;51.032;9.410;2023-04-03T04:24:25;100278.75;;;-2.49;98.67
71573;BME280;59408;51.032;9.410;2023-04-03T04:26:51;100277.56;;;-2.54;98.97
71573;BME280;59408;51.032;9.410;2023-04-03T04:29:18;100278.25;;;-2.58;99.48
71573;BME280;59408;51.032;9.410;2023-04-03T04:31:45;100277.25;;;-2.64;99.71
71573;BME280;59408;51.032;9.410;2023-04-03T04:34:11;100284.47;;;-2.64;100.00
71573;BME280;59408;51.032;9.410;2023-04-03T04:36:38;100279.91;;;-2.64;100.00
71573;BME280;59408;51.032;9.410;2023-04-03T04:39:05;100288.75;;;-2.63;99.96
71573;BME280;59408;51.032;9.410;2023-04-03T04:41:33;100294.09;;;-2.63;100.00
71573;BME280;59408;51.032;9.410;2023-04-03T04:44:00;100294.69;;;-2.61;99.90
71573;BME280;59408;51.032;9.410;2023-04-03T04:46:26;100302.28;;;-2.58;99.80
71573;BME280;59408;51.032;9.410;2023-04-03T04:48:53;100301.03;;;-2.56;99.24
71573;BME280;59408;51.032;9.410;2023-04-03T04:51:20;100310.06;;;-2.57;99.08
71573;BME280;59408;51.032;9.410;2023-04-03T04:53:46;100308.56;;;-2.53;98.64
71573;BME280;59408;51.032;9.410;2023-04-03T04:56:13;100314.13;;;-2.54;98.95
71573;BME280;59408;51.032;9.410;2023-04-03T04:58:41;100306.72;;;-2.52;98.84
71573;BME280;59408;51.032;9.410;2023-04-03T05:01:09;100316.59;;;-2.53;98.68
71573;BME280;59408;51.032;9.410;2023-04-03T05:03:36;100319.03;;;-2.51;98.50
71573;BME280;59408;51.032;9.410;2023-04-03T05:06:04;100316.59;;;-2.53;98.84
71573;BME280;59408;51.032;9.410;2023-04-03T05:08:30;100310.63;;;-2.55;98.99
71573;BME280;59408;51.032;9.410;2023-04-03T05:10:57;100312.28;;;-2.54;98.90
71573;BME280;59408;51.032;9.410;2023-04-03T05:13:24;100321.91;;;-2.53;98.85
71573;BME280;59408;51.032;9.410;2023-04-03T05:15:52;100318.22;;;-2.52;99.17
71573;BME280;59408;51.032;9.410;2023-04-03T05:18:19;100324.59;;;-2.53;99.03
71573;BME280;59408;51.032;9.410;2023-04-03T05:20:48;100327.22;;;-2.46;99.13
71573;BME280;59408;51.032;9.410;2023-04-03T05:23:15;100333.72;;;-2.42;98.81
71573;BME280;59408;51.032;9.410;2023-04-03T05:25:41;100331.22;;;-2.37;97.26
71573;BME280;59408;51.032;9.410;2023-04-03T05:28:08;100334.63;;;-2.30;96.98
71573;BME280;59408;51.032;9.410;2023-04-03T05:30:34;100328.81;;;-2.27;97.29
71573;BME280;59408;51.032;9.410;2023-04-03T05:33:02;100338.03;;;-2.23;96.65
71573;BME280;59408;51.032;9.410;2023-04-03T05:35:29;100333.31;;;-2.21;96.28
71573;BME280;59408;51.032;9.410;2023-04-03T05:37:56;100332.63;;;-2.16;95.84
71573;BME280;59408;51.032;9.410;2023-04-03T05:40:23;100334.41;;;-2.10;95.43
71573;BME280;59408;51.032;9.410;2023-04-03T05:42:49;100339.28;;;-2.07;95.13
71573;BME280;59408;51.032;9.410;2023-04-03T05:45:16;100341.31;;;-2.02;95.71
71573;BME280;59408;51.032;9.410;2023-04-03T05:47:42;100349.22;;;-1.96;94.92
71573;BME280;59408;51.032;9.410;2023-04-03T05:50:11;100350.66;;;-1.93;94.44
71573;BME280;59408;51.032;9.410;2023-04-03T05:52:40;100351.00;;;-1.90;94.83
71573;BME280;59408;51.032;9.410;2023-04-03T05:55:09;100353.00;;;-1.85;93.61
71573;BME280;59408;51.032;9.410;2023-04-03T05:57:35;100365.47;;;-1.79;93.42
71573;BME280;59408;51.032;9.410;2023-04-03T06:00:03;100366.06;;;-1.77;92.86
71573;BME280;59408;51.032;9.410;2023-04-03T06:02:30;100372.16;;;-1.70;91.79
71573;BME280;59408;51.032;9.410;2023-04-03T06:04:57;100372.53;;;-1.66;91.36
71573;BME280;59408;51.032;9.410;2023-04-03T06:07:25;100374.50;;;-1.62;92.09
71573;BME280;59408;51.032;9.410;2023-04-03T06:09:52;100375.47;;;-1.56;91.09
71573;BME280;59408;51.032;9.410;2023-04-03T06:12:19;100382.81;;;-1.52;91.34
71573;BME280;59408;51.032;9.410;2023-04-03T06:14:46;100383.19;;;-1.48;90.09
71573;BME280;59408;51.032;9.410;2023-04-03T06:17:13;100385.16;;;-1.44;89.80
71573;BME280;59408;51.032;9.410;2023-04-03T06:19:39;100381.00;;;-1.40;89.65
71573;BME280;59408;51.032;9.410;2023-04-03T06:22:06;100386.47;;;-1.34;89.37
71573;BME280;59408;51.032;9.410;2023-04-03T06:24:34;100389.53;;;-1.31;89.07
71573;BME280;59408;51.032;9.410;2023-04-03T06:27:01;100393.84;;;-1.30;88.19
71573;BME280;59408;51.032;9.410;2023-04-03T06:29:28;100394.78;;;-1.24;88.99
71573;BME280;59408;51.032;9.410;2023-04-03T06:31:54;100396.78;;;-1.20;88.29
71573;BME280;59408;51.032;9.410;2023-04-03T06:34:21;100403.28;;;-1.16;86.93
71573;BME280;59408;51.032;9.410;2023-04-03T06:36:48;100404.59;;;-1.07;87.30
71573;BME280;59408;51.032;9.410;2023-04-03T06:39:17;100407.09;;;-0.93;87.81
71573;BME280;59408;51.032;9.410;2023-04-03T06:41:45;100409.31;;;-0.79;87.54
71573;BME280;59408;51.032;9.410;2023-04-03T06:44:12;100415.16;;;-0.70;86.13
71573;BME280;59408;51.032;9.410;2023-04-03T06:46:39;100419.72;;;-0.59;85.12
71573;BME280;59408;51.032;9.410;2023-04-03T06:49:06;100420.56;;;-0.47;85.45
71573;BME280;59408;51.032;9.410;2023-04-03T06:51:34;100426.03;;;-0.30;85.13
71573;BME280;59408;51.032;9.410;2023-04-03T06:54:01;100426.25;;;-0.32;83.66
71573;BME280;59408;51.032;9.410;2023-04-03T06:56:28;100428.22;;;-0.27;82.86
71573;BME280;59408;51.032;9.410;2023-04-03T06:58:56;100443.25;;;-0.26;83.87
71573;BME280;59408;51.032;9.410;2023-04-03T07:01:25;100445.84;;;-0.19;83.23
71573;BME280;59408;51.032;9.410;2023-04-03T07:03:52;100450.63;;;-0.10;83.10
71573;BME280;59408;51.032;9.410;2023-04-03T07:06:19;100443.47;;;0.19;82.74
71573;BME280;59408;51.032;9.410;2023-04-03T07:08:46;100453.50;;;0.24;81.51
71573;BME280;59408;51.032;9.410;2023-04-03T07:11:13;100458.03;;;0.35;80.81
71573;BME280;59408;51.032;9.410;2023-04-03T07:13:40;100448.22;;;0.29;80.79
71573;BME280;59408;51.032;9.410;2023-04-03T07:16:09;100453.38;;;0.19;81.84
71573;BME280;59408;51.032;9.410;2023-04-03T07:18:36;100460.00;;;0.28;81.16
71573;BME280;59408;51.032;9.410;2023-04-03T07:21:03;100460.94;;;0.33;80.68
71573;BME280;59408;51.032;9.410;2023-04-03T07:23:30;100463.19;;;0.25;80.96
71573;BME280;59408;51.032;9.410;2023-04-03T07:25:57;100464.66;;;0.44;78.93
71573;BME280;59408;51.032;9.410;2023-04-03T07:28:24;100472.88;;;0.66;80.53
71573;BME280;59408;51.032;9.410;2023-04-03T07:30:52;100472.63;;;0.67;80.45
71573;BME280;59408;51.032;9.410;2023-04-03T07:33:22;100481.63;;;0.73;79.27
71573;BME280;59408;51.032;9.410;2023-04-03T07:35:49;100487.09;;;0.78;79.83
71573;BME280;59408;51.032;9.410;2023-04-03T07:38:15;100483.94;;;0.81;78.94
71573;BME280;59408;51.032;9.410;2023-04-03T07:40:45;100485.63;;;0.99;79.62
71573;BME280;59408;51.032;9.410;2023-04-03T07:43:12;100483.84;;;1.21;79.37
71573;BME280;59408;51.032;9.410;2023-04-03T07:45:38;100489.41;;;1.31;77.30
71573;BME280;59408;51.032;9.410;2023-04-03T07:48:06;100485.72;;;1.20;77.06
71573;BME280;59408;51.032;9.410;2023-04-03T07:50:33;100482.72;;;1.17;76.14
71573;BME280;59408;51.032;9.410;2023-04-03T07:53:00;100478.78;;;1.08;76.87
71573;BME280;59408;51.032;9.410;2023-04-03T07:55:27;100480.47;;;1.25;76.11
71573;BME280;59408;51.032;9.410;2023-04-03T07:57:53;100489.53;;;1.70;75.89
71573;BME280;59408;51.032;9.410;2023-04-03T08:00:20;100491.72;;;1.56;73.79
71573;BME280;59408;51.032;9.410;2023-04-03T08:02:47;100488.22;;;1.55;75.16
71573;BME280;59408;51.032;9.410;2023-04-03T08:05:14;100489.28;;;1.54;74.12
71573;BME280;59408;51.032;9.410;2023-04-03T08:07:42;100495.31;;;1.61;74.91
71573;BME280;59408;51.032;9.410;2023-04-03T08:10:08;100497.59;;;1.53;75.08
71573;BME280;59408;51.032;9.410;2023-04-03T08:12:35;100501.31;;;2.02;73.65
71573;BME280;59408;51.032;9.410;2023-04-03T08:15:02;100497.94;;;1.90;72.07
71573;BME280;59408;51.032;9.410;2023-04-03T08:17:29;100495.13;;;1.85;72.93
71573;BME280;59408;51.032;9.410;2023-04-03T08:19:56;100500.69;;;1.78;72.26
71573;BME280;59408;51.032;9.410;2023-04-03T08:22:23;100503.88;;;1.75;72.55
71573;BME280;59408;51.032;9.410;2023-04-03T08:24:51;100499.53;;;1.57;72.57
71573;BME280;59408;51.032;9.410;2023-04-03T08:27:25;100496.13;;;1.45;72.28
71573;BME280;59408;51.032;9.410;2023-04-03T08:29:52;100498.94;;;1.39;73.49
71573;BME280;59408;51.032;9.410;2023-04-03T08:32:19;100496.84;;;1.41;75.16
71573;BME280;59408;51.032;9.410;2023-04-03T08:34:46;100489.44;;;1.64;72.38
71573;BME280;59408;51.032;9.410;2023-04-03T08:37:12;100486.97;;;1.96;70.33
71573;BME280;59408;51.032;9.410;2023-04-03T08:39:39;100491.56;;;1.79;69.36
71573;BME280;59408;51.032;9.410;2023-04-03T08:42:15;100478.19;;;1.68;70.87
71573;BME280;59408;51.032;9.410;2023-04-03T08:44:48;100479.63;;;2.09;70.08
71573;BME280;59408;51.032;9.410;2023-04-03T08:47:23;100479.94;;;2.51;65.86
71573;BME280;59408;51.032;9.410;2023-04-03T08:49:51;100477.09;;;2.41;63.64
71573;BME280;59408;51.032;9.410;2023-04-03T08:52:24;100479.03;;;2.89;62.80
71573;BME280;59408;51.032;9.410;2023-04-03T08:54:56;100473.41;;;3.49;60.96
71573;BME280;59408;51.032;9.410;2023-04-03T08:57:29;100477.78;;;3.87;61.60
71573;BME280;59408;51.032;9.410;2023-04-03T08:59:58;100474.75;;;4.20;61.22
71573;BME280;59408;51.032;9.410;2023-04-03T09:02:29;100469.34;;;4.20;58.78
71573;BME280;59408;51.032;9.410;2023-04-03T09:04:57;100464.50;;;4.22;56.82
71573;BME280;59408;51.032;9.410;2023-04-03T09:07:32;100478.28;;;3.84;58.13
71573;BME280;59408;51.032;9.410;2023-04-03T09:10:00;100472.50;;;3.38;57.07
71573;BME280;59408;51.032;9.410;2023-04-03T09:12:36;100475.06;;;3.50;57.29
71573;BME280;59408;51.032;9.410;2023-04-03T09:15:11;100478.56;;;3.50;57.00
71573;BME280;59408;51.032;9.410;2023-04-03T09:17:45;100472.97;;;3.94;55.77
71573;BME280;59408;51.032;9.410;2023-04-03T09:20:19;100469.84;;;4.12;55.22
71573;BME280;59408;51.032;9.410;2023-04-03T09:22:50;100482.66;;;3.90;56.65
71573;BME280;59408;51.032;9.410;2023-04-03T09:25:20;100476.94;;;3.49;57.08
71573;BME280;59408;51.032;9.410;2023-04-03T09:27:49;100476.97;;;3.86;55.73
71573;BME280;59408;51.032;9.410;2023-04-03T09:30:19;100471.47;;;3.71;56.09
71573;BME280;59408;51.032;9.410;2023-04-03T09:32:47;100473.91;;;4.15;54.85
71573;BME280;59408;51.032;9.410;2023-04-03T09:35:19;100473.47;;;4.38;55.58
71573;BME280;59408;51.032;9.410;2023-04-03T09:37:59;100462.16;;;5.09;54.65
71573;BME280;59408;51.032;9.410;2023-04-03T09:40:36;100460.56;;;5.68;52.68
71573;BME280;59408;51.032;9.410;2023-04-03T09:43:28;100469.50;;;5.99;53.60
71573;BME280;59408;51.032;9.410;2023-04-03T09:45:55;100452.91;;;6.21;50.80
71573;BME280;59408;51.032;9.410;2023-04-03T09:48:23;100462.91;;;6.36;49.46
71573;BME280;59408;51.032;9.410;2023-04-03T09:50:56;100470.59;;;5.98;49.82
71573;BME280;59408;51.032;9.410;2023-04-03T09:53:35;100464.34;;;6.08;50.03
71573;BME280;59408;51.032;9.410;2023-04-03T09:56:04;100470.44;;;6.49;50.13
71573;BME280;59408;51.032;9.410;2023-04-03T09:58:36;100462.31;;;6.54;47.56
71573;BME280;59408;51.032;9.410;2023-04-03T10:01:26;100464.78;;;6.40;47.79
71573;BME280;59408;51.032;9.410;2023-04-03T10:04:06;100455.19;;;6.68;49.84
71573;BME280;59408;51.032;9.410;2023-04-03T10:06:35;100468.03;;;7.02;48.42
71573;BME280;59408;51.032;9.410;2023-04-03T10:09:06;100457.25;;;7.31;46.58
71573;BME280;59408;51.032;9.410;2023-04-03T10:11:57;100469.59;;;7.57;50.26
71573;BME280;59408;51.032;9.410;2023-04-03T10:14:25;100466.28;;;7.94;47.77
71573;BME280;59408;51.032;9.410;2023-04-03T10:16:59;100458.75;;;8.15;48.02
71573;BME280;59408;51.032;9.410;2023-04-03T10:19:34;100462.63;;;8.32;47.57
71573;BME280;59408;51.032;9.410;2023-04-03T10:22:04;100455.34;;;8.52;46.40
71573;BME280;59408;51.032;9.410;2023-04-03T10:24:52;100450.91;;;8.80;44.44
71573;BME280;59408;51.032;9.410;2023-04-03T10:27:26;100453.13;;;8.96;45.03
71573;BME280;59408;51.032;9.410;2023-04-03T10:30:04;100453.41;;;9.70;45.66
71573;BME280;59408;51.032;9.410;2023-04-03T10:32:44;100455.88;;;9.34;47.48
71573;BME280;59408;51.032;9.410;2023-04-03T10:35:18;100455.28;;;10.02;45.92
71573;BME280;59408;51.032;9.410;2023-04-03T10:38:03;100450.06;;;9.40;44.97
71573;BME280;59408;51.032;9.410;2023-04-03T10:40:38;100452.53;;;8.57;45.37
71573;BME280;59408;51.032;9.410;2023-04-03T10:43:17;100454.84;;;7.97;48.73
71573;BME280;59408;51.032;9.410;2023-04-03T10:45:53;100455.75;;;7.14;46.34
71573;BME280;59408;51.032;9.410;2023-04-03T10:48:40;100455.19;;;6.68;50.49
71573;BME280;59408;51.032;9.410;2023-04-03T10:51:22;100457.94;;;6.58;47.86
71573;BME280;59408;51.032;9.410;2023-04-03T10:53:56;100448.41;;;7.59;49.28
71573;BME280;59408;51.032;9.410;2023-04-03T10:56:32;100446.38;;;8.27;47.19
71573;BME280;59408;51.032;9.410;2023-04-03T10:59:11;100446.94;;;8.48;45.64
71573;BME280;59408;51.032;9.410;2023-04-03T11:01:41;100437.38;;;8.93;46.61
71573;BME280;59408;51.032;9.410;2023-04-03T11:04:09;100430.72;;;9.23;45.86
71573;BME280;59408;51.032;9.410;2023-04-03T11:06:41;100434.91;;;9.34;44.22
71573;BME280;59408;51.032;9.410;2023-04-03T11:09:19;100419.56;;;9.57;44.07
71573;BME280;59408;51.032;9.410;2023-04-03T11:11:48;100429.94;;;9.87;44.31
71573;BME280;59408;51.032;9.410;2023-04-03T11:14:22;100417.84;;;10.07;45.05
71573;BME280;59408;51.032;9.410;2023-04-03T11:16:59;100421.09;;;10.50;42.40
71573;BME280;59408;51.032;9.410;2023-04-03T11:19:34;100407.53;;;10.73;41.10
71573;BME280;59408;51.032;9.410;2023-04-03T11:22:05;100406.44;;;10.33;39.79
71573;BME280;59408;51.032;9.410;2023-04-03T11:24:39;100407.75;;;10.49;43.52
71573;BME280;59408;51.032;9.410;2023-04-03T11:27:12;100397.03;;;10.11;42.06
71573;BME280;59408;51.032;9.410;2023-04-03T11:29:43;100410.88;;;10.42;39.55
71573;BME280;59408;51.032;9.410;2023-04-03T11:32:27;100402.09;;;10.45;41.76
71573;BME280;59408;51.032;9.410;2023-04-03T11:34:57;100398.63;;;10.67;43.58
71573;BME280;59408;51.032;9.410;2023-04-03T11:37:31;100398.34;;;10.82;41.28
71573;BME280;59408;51.032;9.410;2023-04-03T11:40:06;100402.78;;;10.78;40.93
71573;BME280;59408;51.032;9.410;2023-04-03T11:42:37;100391.06;;;11.14;40.89
71573;BME280;59408;51.032;9.410;2023-04-03T11:45:24;100386.94;;;10.53;42.29
71573;BME280;59408;51.032;9.410;2023-04-03T11:47:53;100391.75;;;10.70;41.52
71573;BME280;59408;51.032;9.410;2023-04-03T11:50:41;100381.69;;;11.06;41.21
71573;BME280;59408;51.032;9.410;2023-04-03T11:53:29;100383.22;;;11.21;40.50
71573;BME280;59408;51.032;9.410;2023-04-03T11:56:03;100384.91;;;11.53;41.22
71573;BME280;59408;51.032;9.410;2023-04-03T11:58:31;100380.81;;;11.64;38.06
71573;BME280;59408;51.032;9.410;2023-04-03T12:01:06;100387.88;;;11.65;42.04
71573;BME280;59408;51.032;9.410;2023-04-03T12:09:54;100363.56;;;11.94;38.25
71573;BME280;59408;51.032;9.410;2023-04-03T12:12:33;100368.19;;;11.85;39.88
71573;BME280;59408;51.032;9.410;2023-04-03T12:15:23;100370.44;;;12.14;38.38
71573;BME280;59408;51.032;9.410;2023-04-03T12:17:51;100375.78;;;12.19;40.82
71573;BME280;59408;51.032;9.410;2023-04-03T12:20:55;100361.47;;;12.31;38.09
71573;BME280;59408;51.032;9.410;2023-04-03T12:23:24;100354.00;;;13.22;38.38
71573;BME280;59408;51.032;9.410;2023-04-03T12:25:51;100359.97;;;12.73;39.51
71573;BME280;59408;51.032;9.410;2023-04-03T12:28:19;100354.16;;;12.66;40.69
71573;BME280;59408;51.032;9.410;2023-04-03T12:30:46;100334.84;;;13.05;36.03
71573;BME280;59408;51.032;9.410;2023-04-03T12:33:20;100351.75;;;13.24;37.92
71573;BME280;59408;51.032;9.410;2023-04-03T12:36:02;100350.97;;;12.16;40.32
71573;BME280;59408;51.032;9.410;2023-04-03T12:38:46;100352.63;;;11.32;39.87
71573;BME280;59408;51.032;9.410;2023-04-03T12:41:23;100352.31;;;11.96;39.26
71573;BME280;59408;51.032;9.410;2023-04-03T12:44:10;100345.78;;;12.54;38.63
71573;BME280;59408;51.032;9.410;2023-04-03T12:46:43;100342.88;;;12.59;38.08
71573;BME280;59408;51.032;9.410;2023-04-03T12:49:22;100335.31;;;13.07;41.81
71573;BME280;59408;51.032;9.410;2023-04-03T12:51:51;100334.00;;;13.31;37.49
71573;BME280;59408;51.032;9.410;2023-04-03T12:54:19;100330.78;;;13.03;37.25
71573;BME280;59408;51.032;9.410;2023-04-03T12:56:48;100320.47;;;13.43;36.43
71573;BME280;59408;51.032;9.410;2023-04-03T12:59:19;100321.13;;;13.86;38.06
71573;BME280;59408;51.032;9.410;2023-04-03T13:01:53;100315.56;;;13.66;40.42
71573;BME280;59408;51.032;9.410;2023-04-03T13:04:21;100315.13;;;13.93;37.09
71573;BME280;59408;51.032;9.410;2023-04-03T13:06:48;100325.63;;;13.36;36.12
71573;BME280;59408;51.032;9.410;2023-04-03T13:09:21;100321.53;;;13.59;35.87
71573;BME280;59408;51.032;9.410;2023-04-03T13:11:49;100328.16;;;13.58;37.67
71573;BME280;59408;51.032;9.410;2023-04-03T13:14:19;100320.84;;;13.79;35.88